Time,TemperatureF,DewpointF,PressureIn,WindDirection,WindDirectionDegrees,WindSpeedMPH,WindSpeedGustMPH,Humidity,HourlyPrecipIn,Conditions,Clouds,dailyrainin,SolarRadiationWatts/m^2,SoftwareType,DateUTC
2013-05-23 00:09:00,49.7,48.6,29.88,East,97,2.0,6.0,96,0.00,,OVC005,0.00,0.00,VWS V14.01,2013-05-23 04:09:00,
2013-05-23 00:19:00,49.6,48.5,29.88,East,95,0.0,5.0,96,0.00,,OVC005,0.00,0.00,VWS V14.01,2013-05-23 04:19:00,
2013-05-23 00:29:00,49.6,48.5,29.88,East,99,2.0,6.0,96,0.00,,OVC005,0.00,0.00,VWS V14.01,2013-05-23 04:29:00,
2013-05-23 00:39:00,49.5,48.4,29.88,East,98,0.0,4.0,96,0.00,,OVC005,0.00,0.00,VWS V14.01,2013-05-23 04:39:00,
2013-05-23 00:49:00,49.5,48.4,29.88,East,88,0.0,3.0,96,0.00,,OVC005,0.00,0.00,VWS V14.01,2013-05-23 04:49:00,
2013-05-23 00:59:00,49.5,48.4,29.88,East,81,0.0,3.0,96,0.00,,OVC005,0.00,0.00,VWS V14.01,2013-05-23 04:59:00,
2013-05-23 01:09:00,49.4,48.3,29.88,East,81,0.0,3.0,96,0.00,,OVC005,0.00,0.00,VWS V14.01,2013-05-23 05:09:00,
2013-05-23 01:19:00,49.3,48.2,29.88,East,81,0.0,3.0,96,0.01,,OVC005,0.01,0.00,VWS V14.01,2013-05-23 05:19:00,
2013-05-23 01:29:00,49.2,48.1,29.88,East,80,0.0,3.0,96,0.01,,OVC005,0.01,0.00,VWS V14.01,2013-05-23 05:29:00,
2013-05-23 01:39:00,49.1,48.0,29.87,East,81,2.0,3.0,96,0.01,,OVC005,0.01,0.00,VWS V14.01,2013-05-23 05:39:00,
2013-05-23 01:49:00,49.0,47.9,29.87,East,80,0.0,3.0,96,0.01,,OVC005,0.01,0.00,VWS V14.01,2013-05-23 05:49:00,
2013-05-23 01:59:00,49.0,47.9,29.86,East,81,0.0,5.0,96,0.01,,OVC005,0.01,0.00,VWS V14.01,2013-05-23 05:59:00,
2013-05-23 02:09:00,48.9,47.8,29.86,East,81,0.0,3.0,96,0.01,,OVC005,0.01,0.00,VWS V14.01,2013-05-23 06:09:00,
2013-05-23 02:19:00,48.9,47.8,29.85,East,81,0.0,3.0,96,0.01,,OVC005,0.01,0.00,VWS V14.01,2013-05-23 06:19:00,
2013-05-23 02:29:00,48.8,47.7,29.84,East,81,0.0,2.0,96,0.00,,OVC005,0.01,0.00,VWS V14.01,2013-05-23 06:29:00,
2013-05-23 02:39:00,48.7,47.6,29.83,East,81,0.0,3.0,96,0.00,,OVC005,0.01,0.00,VWS V14.01,2013-05-23 06:39:00,
2013-05-23 02:49:00,48.8,47.7,29.84,East,81,0.0,0.0,96,0.00,,,0.01,0.00,VWS V14.01,2013-05-23 06:49:00,
2013-05-23 02:59:00,48.8,48.0,29.83,East,81,0.0,1.0,97,0.00,,,0.01,0.00,VWS V14.01,2013-05-23 06:59:00,
2013-05-23 03:09:00,48.8,48.0,29.83,East,80,0.0,5.0,97,0.00,,,0.01,0.00,VWS V14.01,2013-05-23 07:09:00,
2013-05-23 03:19:00,48.8,48.0,29.83,East,80,0.0,3.0,97,0.00,,,0.01,0.00,VWS V14.01,2013-05-23 07:19:00,
2013-05-23 03:29:00,48.8,48.0,29.83,East,81,0.0,3.0,97,0.00,,,0.01,0.00,VWS V14.01,2013-05-23 07:29:00,
2013-05-23 03:39:00,48.9,48.1,29.83,East,81,0.0,2.0,97,0.00,,,0.01,0.00,VWS V14.01,2013-05-23 07:39:00,
2013-05-23 03:49:00,48.9,48.1,29.83,East,81,0.0,2.0,97,0.00,,,0.01,0.00,VWS V14.01,2013-05-23 07:49:00,
2013-05-23 03:59:00,48.9,48.1,29.83,East,81,0.0,3.0,97,0.00,,,0.01,0.00,VWS V14.01,2013-05-23 07:59:00,
2013-05-23 04:09:00,48.9,48.1,29.83,East,81,0.0,3.0,97,0.00,,,0.01,0.00,VWS V14.01,2013-05-23 08:09:00,
2013-05-23 04:19:00,48.9,48.1,29.83,East,80,0.0,5.0,97,0.00,,,0.01,0.00,VWS V14.01,2013-05-23 08:19:00,
2013-05-23 04:29:00,48.9,48.1,29.83,East,80,0.0,5.0,97,0.00,,,0.01,0.00,VWS V14.01,2013-05-23 08:29:00,
2013-05-23 04:39:00,48.9,48.1,29.83,East,81,0.0,2.0,97,0.00,,,0.01,0.00,VWS V14.01,2013-05-23 08:39:00,
2013-05-23 04:49:00,48.9,48.1,29.83,East,81,2.0,2.0,97,0.00,,,0.01,0.00,VWS V14.01,2013-05-23 08:49:00,
2013-05-23 04:59:00,48.9,48.1,29.84,East,80,1.0,2.0,97,0.00,,,0.01,0.00,VWS V14.01,2013-05-23 08:59:00,
2013-05-23 05:09:00,48.9,48.1,29.84,East,81,0.0,2.0,97,0.00,,,0.01,0.00,VWS V14.01,2013-05-23 09:09:00,
2013-05-23 05:19:00,49.0,48.2,29.84,East,81,0.0,2.0,97,0.00,,,0.01,0.00,VWS V14.01,2013-05-23 09:19:00,
2013-05-23 05:29:00,49.0,48.2,29.84,East,80,0.0,1.0,97,0.00,,,0.01,0.00,VWS V14.01,2013-05-23 09:29:00,
2013-05-23 05:39:00,49.0,48.2,29.84,East,81,0.0,0.0,97,0.00,,,0.01,7.00,VWS V14.01,2013-05-23 09:39:00,
2013-05-23 05:49:00,49.0,48.2,29.85,East,80,0.0,2.0,97,0.00,,,0.01,14.00,VWS V14.01,2013-05-23 09:49:00,
2013-05-23 05:59:00,49.0,48.2,29.85,East,81,2.0,3.0,97,0.00,,,0.01,18.00,VWS V14.01,2013-05-23 09:59:00,
2013-05-23 06:09:00,49.0,48.2,29.85,East,80,0.0,3.0,97,0.00,,,0.01,26.00,VWS V14.01,2013-05-23 10:09:00,
2013-05-23 06:19:00,49.2,48.4,29.86,East,81,0.0,1.0,97,0.00,,,0.01,26.00,VWS V14.01,2013-05-23 10:19:00,
2013-05-23 06:29:00,49.2,48.4,29.85,East,81,1.0,3.0,97,0.00,,,0.01,47.00,VWS V14.01,2013-05-23 10:29:00,
2013-05-23 06:39:00,49.4,48.6,29.85,East,81,0.0,3.0,97,0.00,,,0.01,47.00,VWS V14.01,2013-05-23 10:39:00,
2013-05-23 06:49:00,49.6,48.8,29.86,East,80,0.0,2.0,97,0.00,,,0.01,62.00,VWS V14.01,2013-05-23 10:49:00,
2013-05-23 06:59:00,49.6,48.8,29.85,East,81,0.0,2.0,97,0.00,,,0.01,54.00,VWS V14.01,2013-05-23 10:59:00,
2013-05-23 07:09:00,49.6,48.8,29.86,East,80,0.0,2.0,97,0.00,,,0.01,69.00,VWS V14.01,2013-05-23 11:09:00,
2013-05-23 07:19:00,50.0,49.2,29.86,East,80,0.0,1.0,97,0.00,,,0.01,113.00,VWS V14.01,2013-05-23 11:19:00,
2013-05-23 07:29:00,50.1,49.3,29.85,East,81,2.0,3.0,97,0.00,,,0.01,111.00,VWS V14.01,2013-05-23 11:29:00,
2013-05-23 07:39:00,50.2,49.4,29.85,East,81,0.0,2.0,97,0.00,,,0.01,67.00,VWS V14.01,2013-05-23 11:39:00,
2013-05-23 07:49:00,50.5,49.7,29.85,East,81,0.0,2.0,97,0.00,,,0.01,148.00,VWS V14.01,2013-05-23 11:49:00,
2013-05-23 07:59:00,51.0,50.2,29.86,East,80,0.0,2.0,97,0.00,,,0.01,90.00,VWS V14.01,2013-05-23 11:59:00,
2013-05-23 08:09:00,51.6,50.8,29.85,East,81,0.0,0.0,97,0.00,,,0.01,195.00,VWS V14.01,2013-05-23 12:09:00,
2013-05-23 08:19:00,51.8,51.0,29.85,East,80,0.0,2.0,97,0.00,,,0.01,207.00,VWS V14.01,2013-05-23 12:19:00,
2013-05-23 08:29:00,52.2,51.4,29.84,East,81,0.0,3.0,97,0.00,,,0.01,274.00,VWS V14.01,2013-05-23 12:29:00,
2013-05-23 08:39:00,52.8,52.0,29.85,East,81,0.0,1.0,97,0.00,,,0.01,167.00,VWS V14.01,2013-05-23 12:39:00,
2013-05-23 08:49:00,53.1,52.3,29.85,East,81,0.0,2.0,97,0.00,,,0.01,214.00,VWS V14.01,2013-05-23 12:49:00,
2013-05-23 08:59:00,54.1,53.3,29.84,East,81,0.0,0.0,97,0.00,,,0.01,512.00,VWS V14.01,2013-05-23 12:59:00,
2013-05-23 09:09:00,54.3,53.5,29.84,East,81,1.0,2.0,97,0.00,,,0.01,295.00,VWS V14.01,2013-05-23 13:09:00,
2013-05-23 09:19:00,55.5,54.7,29.83,East,80,0.0,6.0,97,0.00,,,0.01,265.00,VWS V14.01,2013-05-23 13:19:00,
2013-05-23 09:29:00,56.0,55.2,29.84,SE,146,0.0,7.0,97,0.00,,,0.01,209.00,VWS V14.01,2013-05-23 13:29:00,
2013-05-23 09:39:00,55.7,54.9,29.84,SSW,200,0.0,5.0,97,0.00,,,0.01,176.00,VWS V14.01,2013-05-23 13:39:00,
2013-05-23 09:49:00,55.7,54.9,29.85,SSW,199,0.0,4.0,97,0.00,,,0.01,209.00,VWS V14.01,2013-05-23 13:49:00,
2013-05-23 09:59:00,56.2,55.4,29.84,SSW,200,0.0,0.0,97,0.00,,,0.01,153.00,VWS V14.01,2013-05-23 13:59:00,
2013-05-23 10:09:00,56.6,55.8,29.84,SE,134,0.0,3.0,97,0.00,,,0.01,148.00,VWS V14.01,2013-05-23 14:09:00,
2013-05-23 10:19:00,56.8,56.0,29.84,SE,129,0.0,2.0,97,0.00,,,0.01,246.00,VWS V14.01,2013-05-23 14:19:00,
2013-05-23 10:29:00,57.3,56.5,29.84,SE,129,0.0,0.0,97,0.00,,,0.01,276.00,VWS V14.01,2013-05-23 14:29:00,
2013-05-23 10:39:00,58.0,57.2,29.84,SE,129,0.0,2.0,97,0.00,,,0.01,269.00,VWS V14.01,2013-05-23 14:39:00,
2013-05-23 10:49:00,58.8,58.0,29.84,SE,132,0.0,2.0,97,0.00,,,0.01,744.00,VWS V14.01,2013-05-23 14:49:00,
2013-05-23 10:59:00,60.4,59.5,29.83,South,172,0.0,4.0,97,0.00,,,0.01,582.00,VWS V14.01,2013-05-23 14:59:00,
2013-05-23 11:09:00,60.5,59.7,29.83,SSE,164,0.0,3.0,97,0.00,,,0.01,406.00,VWS V14.01,2013-05-23 15:09:00,
2013-05-23 11:19:00,60.6,59.8,29.83,South,184,0.0,4.0,97,0.00,,,0.01,353.00,VWS V14.01,2013-05-23 15:19:00,
2013-05-23 11:29:00,60.8,60.0,29.83,SSW,193,2.0,5.0,97,0.00,,,0.01,504.00,VWS V14.01,2013-05-23 15:29:00,
2013-05-23 11:39:00,62.2,61.3,29.82,South,177,3.0,6.0,97,0.00,,,0.01,485.00,VWS V14.01,2013-05-23 15:39:00,
2013-05-23 11:49:00,62.8,61.9,29.82,SW,215,0.0,7.0,97,0.00,,-RA,0.01,492.00,VWS V14.01,2013-05-23 15:49:00,
2013-05-23 11:59:00,64.1,63.2,29.82,SSW,197,0.0,4.0,97,0.00,,-RA,0.01,431.00,VWS V14.01,2013-05-23 15:59:00,
2013-05-23 12:09:00,64.9,64.0,29.82,SSW,205,6.0,6.0,97,0.00,,-RA,0.01,628.00,VWS V14.01,2013-05-23 16:09:00,
2013-05-23 12:19:00,65.6,64.7,29.82,South,182,0.0,6.0,97,0.00,,-RA,0.01,385.00,VWS V14.01,2013-05-23 16:19:00,
2013-05-23 12:29:00,65.9,65.0,29.82,SSW,206,0.0,7.0,97,0.00,,-RA,0.01,253.00,VWS V14.01,2013-05-23 16:29:00,
2013-05-23 12:39:00,66.6,65.7,29.82,SSE,168,4.0,4.0,97,0.00,,-RA,0.01,696.00,VWS V14.01,2013-05-23 16:39:00,
2013-05-23 12:49:00,67.2,66.3,29.82,South,171,0.0,11.0,97,0.00,,-RA,0.01,288.00,VWS V14.01,2013-05-23 16:49:00,
2013-05-23 12:59:00,67.7,66.8,29.82,SW,218,0.0,12.0,97,0.00,,,0.01,207.00,VWS V14.01,2013-05-23 16:59:00,
2013-05-23 13:09:00,68.2,67.3,29.81,SW,236,1.0,7.0,97,0.00,,,0.01,355.00,VWS V14.01,2013-05-23 17:09:00,
2013-05-23 13:19:00,69.2,68.0,29.81,SW,219,20.0,20.0,96,0.00,,,0.01,580.00,VWS V14.01,2013-05-23 17:19:00,
2013-05-23 13:29:00,70.6,67.5,29.80,SW,226,0.0,20.0,90,0.00,,,0.01,807.00,VWS V14.01,2013-05-23 17:29:00,
2013-05-23 13:39:00,70.8,65.7,29.79,WSW,237,2.0,16.0,84,0.00,,,0.01,499.00,VWS V14.01,2013-05-23 17:39:00,
2013-05-23 13:49:00,71.2,65.1,29.78,WSW,252,0.0,16.0,81,0.00,,,0.01,443.00,VWS V14.01,2013-05-23 17:49:00,
2013-05-23 13:59:00,71.3,65.5,29.78,SW,217,6.0,12.0,82,0.00,,,0.01,413.00,VWS V14.01,2013-05-23 17:59:00,
2013-05-23 14:09:00,71.3,64.8,29.78,WSW,253,1.0,12.0,80,0.00,,,0.01,396.00,VWS V14.01,2013-05-23 18:09:00,
2013-05-23 14:19:00,71.3,64.8,29.79,SW,231,2.0,14.0,80,0.00,,,0.01,399.00,VWS V14.01,2013-05-23 18:19:00,
2013-05-23 14:29:00,71.4,64.6,29.79,SSW,209,3.0,18.0,79,0.00,,,0.01,232.00,VWS V14.01,2013-05-23 18:29:00,
2013-05-23 14:39:00,71.0,64.5,29.79,SW,225,0.0,7.0,80,0.00,,,0.01,79.00,VWS V14.01,2013-05-23 18:39:00,
2013-05-23 14:49:00,70.1,63.7,29.79,SW,227,3.0,10.0,80,0.00,,,0.01,25.00,VWS V14.01,2013-05-23 18:49:00,
2013-05-23 14:59:00,69.2,64.2,29.80,SSW,207,0.0,12.0,84,0.00,,,0.01,42.00,VWS V14.01,2013-05-23 18:59:00,
2013-05-23 15:09:00,68.1,63.8,29.80,SW,214,0.0,14.0,86,0.00,,OVC030,0.01,16.00,VWS V14.01,2013-05-23 19:09:00,
2013-05-23 15:19:00,66.7,63.7,29.81,SSW,210,2.0,16.0,90,0.05,,OVC030,0.06,18.00,VWS V14.01,2013-05-23 19:19:00,
2013-05-23 15:29:00,65.6,63.5,29.81,SW,233,3.0,14.0,93,0.11,,OVC030,0.12,12.00,VWS V14.01,2013-05-23 19:29:00,
2013-05-23 15:39:00,65.3,63.5,29.81,SW,224,2.0,10.0,94,0.16,,OVC030,0.17,16.00,VWS V14.01,2013-05-23 19:39:00,
2013-05-23 15:49:00,65.0,63.5,29.80,West,270,5.0,17.0,95,0.18,,OVC030,0.19,26.00,VWS V14.01,2013-05-23 19:49:00,
2013-05-23 15:59:00,64.9,63.4,29.80,SW,233,5.0,19.0,95,0.21,,,0.22,35.00,VWS V14.01,2013-05-23 19:59:00,
2013-05-23 16:09:00,64.8,63.3,29.79,West,270,1.0,11.0,95,0.23,,,0.24,54.00,VWS V14.01,2013-05-23 20:09:00,
2013-05-23 16:19:00,64.6,62.8,29.78,SW,222,0.0,6.0,94,0.24,,,0.25,70.00,VWS V14.01,2013-05-23 20:19:00,
2013-05-23 16:29:00,64.5,63.0,29.78,SSW,207,0.0,11.0,95,0.19,,,0.25,81.00,VWS V14.01,2013-05-23 20:29:00,
2013-05-23 16:39:00,64.6,63.1,29.77,SSW,209,2.0,5.0,95,0.14,,,0.26,120.00,VWS V14.01,2013-05-23 20:39:00,
2013-05-23 16:49:00,64.6,63.1,29.78,SW,225,2.0,6.0,95,0.09,,,0.26,90.00,VWS V14.01,2013-05-23 20:49:00,
2013-05-23 16:59:00,64.5,63.0,29.78,SW,227,2.0,9.0,95,0.07,,,0.26,100.00,VWS V14.01,2013-05-23 20:59:00,
2013-05-23 17:09:00,64.4,62.9,29.78,SW,219,0.0,6.0,95,0.04,,,0.26,102.00,VWS V14.01,2013-05-23 21:09:00,
2013-05-23 17:19:00,64.5,63.0,29.78,SW,218,0.0,8.0,95,0.02,,,0.26,81.00,VWS V14.01,2013-05-23 21:19:00,
2013-05-23 17:29:00,64.7,63.2,29.77,SW,218,0.0,6.0,95,0.01,,,0.26,79.00,VWS V14.01,2013-05-23 21:29:00,
2013-05-23 17:39:00,64.9,63.7,29.77,SW,231,0.0,7.0,96,0.01,,,0.26,156.00,VWS V14.01,2013-05-23 21:39:00,
2013-05-23 17:49:00,65.1,63.9,29.77,SSW,213,4.0,7.0,96,0.00,,-RA,0.26,69.00,VWS V14.01,2013-05-23 21:49:00,
2013-05-23 17:59:00,65.0,63.8,29.77,South,175,2.0,7.0,96,0.00,,-RA,0.26,51.00,VWS V14.01,2013-05-23 21:59:00,
2013-05-23 18:09:00,64.9,63.7,29.77,SSW,213,0.0,10.0,96,0.00,,-RA,0.26,40.00,VWS V14.01,2013-05-23 22:09:00,
2013-05-23 18:19:00,64.9,63.7,29.78,SW,215,5.0,9.0,96,0.00,,-RA,0.26,40.00,VWS V14.01,2013-05-23 22:19:00,
2013-05-23 18:29:00,64.8,63.6,29.77,SSW,202,0.0,14.0,96,0.00,,-RA,0.26,40.00,VWS V14.01,2013-05-23 22:29:00,
2013-05-23 18:39:00,64.7,63.5,29.78,SW,228,5.0,16.0,96,0.00,,-RA,0.26,28.00,VWS V14.01,2013-05-23 22:39:00,
2013-05-23 18:49:00,64.6,63.1,29.78,SW,216,3.0,10.0,95,0.00,,-RA,0.26,14.00,VWS V14.01,2013-05-23 22:49:00,
2013-05-23 18:59:00,64.5,63.0,29.78,SW,224,2.0,10.0,95,0.01,,-RA,0.27,11.00,VWS V14.01,2013-05-23 22:59:00,
2013-05-23 19:09:00,64.3,63.1,29.77,SW,218,3.0,11.0,96,0.02,,-RA,0.28,11.00,VWS V14.01,2013-05-23 23:09:00,
2013-05-23 19:19:00,64.2,62.7,29.77,SW,216,5.0,15.0,95,0.02,,-RA,0.28,9.00,VWS V14.01,2013-05-23 23:19:00,
2013-05-23 19:29:00,64.0,62.8,29.77,SW,221,5.0,10.0,96,0.03,,-RA,0.29,5.00,VWS V14.01,2013-05-23 23:29:00,
2013-05-23 19:39:00,63.9,62.7,29.78,SW,218,8.0,14.0,96,0.04,,-RA,0.30,0.00,VWS V14.01,2013-05-23 23:39:00,
2013-05-23 19:49:00,63.7,62.5,29.78,SW,222,0.0,10.0,96,0.06,,-RA,0.32,0.00,VWS V14.01,2013-05-23 23:49:00,
2013-05-23 19:59:00,63.4,62.2,29.77,SW,232,3.0,11.0,96,0.06,,RA,0.32,0.00,VWS V14.01,2013-05-23 23:59:00,
2013-05-23 20:09:00,63.1,61.9,29.77,SW,226,0.0,11.0,96,0.06,,RA,0.33,0.00,VWS V14.01,2013-05-24 00:09:00,
2013-05-23 20:19:00,63.0,61.8,29.76,SW,222,4.0,10.0,96,0.05,,RA,0.33,0.00,VWS V14.01,2013-05-24 00:19:00,
2013-05-23 20:29:00,62.9,61.8,29.76,SW,223,0.0,6.0,96,0.06,,-RA,0.34,0.00,VWS V14.01,2013-05-24 00:29:00,
2013-05-23 20:39:00,62.7,61.5,29.76,SW,223,0.0,3.0,96,0.05,,-RA,0.34,0.00,VWS V14.01,2013-05-24 00:39:00,
2013-05-23 20:49:00,62.6,61.5,29.76,SW,223,4.0,6.0,96,0.05,,-RA,0.35,0.00,VWS V14.01,2013-05-24 00:49:00,
2013-05-23 20:59:00,62.4,61.2,29.76,SW,223,0.0,5.0,96,0.03,,-RA,0.35,0.00,VWS V14.01,2013-05-24 00:59:00,
2013-05-23 21:09:00,62.3,61.2,29.76,SW,223,0.0,5.0,96,0.03,,-RA,0.35,0.00,VWS V14.01,2013-05-24 01:09:00,
2013-05-23 21:19:00,62.2,61.0,29.76,SW,223,0.0,6.0,96,0.02,,-RA,0.35,0.00,VWS V14.01,2013-05-24 01:19:00,
2013-05-23 21:29:00,62.2,61.0,29.76,SW,229,0.0,9.0,96,0.02,,-RA,0.35,0.00,VWS V14.01,2013-05-24 01:29:00,
2013-05-23 21:39:00,62.2,61.0,29.76,SW,227,0.0,9.0,96,0.01,,-RA,0.35,0.00,VWS V14.01,2013-05-24 01:39:00,
2013-05-23 21:49:00,62.2,61.0,29.76,SW,214,0.0,8.0,96,0.01,,BKN100,0.35,0.00,VWS V14.01,2013-05-24 01:49:00,
2013-05-23 21:59:00,62.2,61.0,29.76,SW,222,0.0,7.0,96,0.00,,BKN100,0.35,0.00,VWS V14.01,2013-05-24 01:59:00,
2013-05-23 22:09:00,62.2,61.0,29.76,WSW,250,0.0,10.0,96,0.00,,BKN100,0.35,0.00,VWS V14.01,2013-05-24 02:09:00,
2013-05-23 22:19:00,62.3,61.2,29.75,SSW,213,1.0,10.0,96,0.00,,BKN100,0.35,0.00,VWS V14.01,2013-05-24 02:19:00,
2013-05-23 22:29:00,62.3,61.2,29.74,SW,220,0.0,10.0,96,0.00,,BKN100,0.35,0.00,VWS V14.01,2013-05-24 02:29:00,
2013-05-23 22:39:00,62.3,61.2,29.74,SW,227,0.0,8.0,96,0.00,,BKN100,0.35,0.00,VWS V14.01,2013-05-24 02:39:00,
2013-05-23 22:49:00,62.3,61.2,29.73,SW,218,6.0,7.0,96,0.00,,OVC028,0.35,0.00,VWS V14.01,2013-05-24 02:49:00,
2013-05-23 22:59:00,62.4,61.2,29.73,SW,220,0.0,8.0,96,0.00,,OVC028,0.35,0.00,VWS V14.01,2013-05-24 02:59:00,
2013-05-23 23:09:00,62.4,61.2,29.73,SW,219,4.0,8.0,96,0.00,,OVC028,0.35,0.00,VWS V14.01,2013-05-24 03:09:00,
2013-05-23 23:19:00,62.4,61.2,29.73,SW,216,1.0,10.0,96,0.00,,OVC028,0.35,0.00,VWS V14.01,2013-05-24 03:19:00,
2013-05-23 23:29:00,62.3,61.2,29.73,SW,232,1.0,12.0,96,0.00,,OVC028,0.35,0.00,VWS V14.01,2013-05-24 03:29:00,
2013-05-23 23:39:00,62.3,61.2,29.73,SW,215,6.0,10.0,96,0.00,,OVC028,0.35,0.00,VWS V14.01,2013-05-24 03:39:00,
2013-05-23 23:49:00,62.2,61.0,29.73,SW,215,2.0,10.0,96,0.00,,-RA,0.35,0.00,VWS V14.01,2013-05-24 03:49:00,
2013-05-23 23:59:00,62.1,61.0,29.73,SW,217,0.0,11.0,96,0.01,,-RA,0.36,0.00,VWS V14.01,2013-05-24 03:59:00,